Time;durP1;ratioP1;P1;durP2;ratioP2;P2;SDS_P1;SDS_P2;PMS_P1;PMS_P2;Temp;Humidity;BMP_temperature;BMP_pressure;BME280_temperature;BME280_humidity;BME280_pressure;Samples;Min_cycle;Max_cycle;Signal;HPM_P1;HPM_P2
2023/08/28 00:01:31;;;;;;;2.95;2.60;;;;;;;18.59;86.56;98810.94;4896566;29;20526;-82
2023/08/28 00:04:15;;;;;;;4.05;2.50;;;;;;;18.87;85.86;98793.09;4881504;29;20201;-82
2023/08/28 00:06:58;;;;;;;;;;;;;;;19.02;85.94;98802.25;4891756;29;20044;-83
2023/08/28 00:09:42;;;;;;;3.85;2.53;;;;;;;18.90;85.91;98805.88;4898068;29;19926;-84
2023/08/28 00:12:26;;;;;;;3.03;2.72;;;;;;;18.83;85.58;98786.66;4891095;29;20052;-83
2023/08/28 00:15:11;;;;;;;4.60;2.90;;;;;;;18.92;85.53;98795.78;4889325;29;20047;-84
2023/08/28 00:17:54;;;;;;;5.50;2.40;;;;;;;18.47;87.24;98802.31;4886084;29;20482;-83
2023/08/28 00:20:40;;;;;;;3.75;2.85;;;;;;;18.60;86.63;98798.47;4880152;29;20067;-83
2023/08/28 00:23:24;;;;;;;2.92;2.50;;;;;;;18.76;86.54;98810.00;4884096;29;20065;-83
2023/08/28 00:26:08;;;;;;;4.43;2.75;;;;;;;19.04;85.59;98802.78;4897324;29;20059;-84
2023/08/28 00:28:51;;;;;;;5.30;3.30;;;;;;;18.94;86.60;98806.97;4898705;29;20051;-83
2023/08/28 00:31:35;;;;;;;4.15;2.60;;;;;;;18.62;87.64;98802.44;4886377;29;20047;-83
2023/08/28 00:34:19;;;;;;;3.70;3.03;;;;;;;18.56;88.07;98800.81;4887036;29;20051;-83
2023/08/28 00:37:04;;;;;;;4.40;3.15;;;;;;;18.97;87.15;98792.38;4890805;29;20104;-84
2023/08/28 00:39:48;;;;;;;6.38;3.17;;;;;;;18.80;87.92;98797.81;4887105;29;20427;-84
2023/08/28 00:42:32;;;;;;;3.47;3.10;;;;;;;18.84;88.22;98791.72;4894210;29;20471;-84
2023/08/28 00:45:16;;;;;;;4.38;3.00;;;;;;;18.88;87.66;98784.06;4885397;29;20138;-84
2023/08/28 00:48:02;;;;;;;4.03;3.40;;;;;;;18.69;88.46;98792.44;4883201;29;20124;-84
2023/08/28 00:50:47;;;;;;;3.28;2.97;;;;;;;18.77;88.16;98788.50;4885050;29;20654;-82
2023/08/28 00:53:32;;;;;;;6.00;3.38;;;;;;;18.71;88.83;98800.13;4888320;29;20043;-82
2023/08/28 00:56:16;;;;;;;5.88;3.30;;;;;;;19.00;88.19;98791.06;4887013;29;20108;-82
2023/08/28 00:59:00;;;;;;;4.60;3.40;;;;;;;18.84;88.11;98789.06;4888778;29;20100;-82
2023/08/28 01:01:45;;;;;;;5.40;3.40;;;;;;;18.83;88.42;98782.16;4889198;29;20050;-82
2023/08/28 01:04:30;;;;;;;5.13;4.05;;;;;;;18.98;88.25;98784.13;4889291;29;20059;-82
2023/08/28 01:07:23;;;;;;;8.23;3.92;;;;;;;18.96;88.11;98791.53;4890977;29;20566;-82
2023/08/28 01:10:15;;;;;;;4.13;3.47;;;;;;;19.07;88.52;98796.97;4884670;29;20104;-83
2023/08/28 01:13:04;;;;;;;6.30;3.72;;;;;;;19.04;88.58;98797.47;4888140;29;20084;-83
2023/08/28 01:15:49;;;;;;;7.05;4.13;;;;;;;18.91;88.87;98796.84;4890473;29;20520;-82
2023/08/28 01:18:34;;;;;;;6.60;4.10;;;;;;;19.69;86.54;98794.63;4890150;29;20078;-83
2023/08/28 01:21:19;;;;;;;6.22;3.70;;;;;;;19.58;86.69;98791.13;4891483;29;20055;-83
2023/08/28 01:24:08;;;;;;;4.05;3.38;;;;;;;19.75;86.21;98790.91;4892570;29;20047;-83
2023/08/28 01:26:52;;;;;;;3.85;3.30;;;;;;;19.88;86.02;98808.25;4891292;29;20040;-83
2023/08/28 01:29:36;;;;;;;4.68;3.53;;;;;;;19.72;85.54;98806.59;4892023;29;20051;-83
2023/08/28 01:32:20;;;;;;;5.30;3.95;;;;;;;19.56;86.11;98806.56;4888257;29;20051;-83
2023/08/28 01:35:17;;;;;;;5.45;3.63;;;;;;;19.57;86.06;98808.16;4888300;29;20258;-82
2023/08/28 01:38:19;;;;;;;3.72;3.38;;;;;;;19.56;85.93;98814.53;4887510;29;20096;-82
2023/08/28 01:41:07;;;;;;;5.70;3.65;;;;;;;19.47;86.11;98800.91;4882853;29;20117;-82
2023/08/28 01:44:01;;;;;;;8.25;4.10;;;;;;;19.48;85.95;98807.03;4892107;29;20047;-84
2023/08/28 01:46:46;;;;;;;5.30;3.63;;;;;;;19.47;85.65;98811.56;4889714;29;20108;-82
2023/08/28 01:49:32;;;;;;;6.70;3.47;;;;;;;19.27;86.37;98812.25;4885684;29;20129;-83
2023/08/28 01:52:17;;;;;;;5.07;3.75;;;;;;;19.22;86.43;98821.00;4894038;29;20526;-83
2023/08/28 01:55:01;;;;;;;4.95;3.65;;;;;;;19.16;85.94;98816.69;4887910;29;20095;-83
2023/08/28 01:57:46;;;;;;;6.03;3.83;;;;;;;18.98;87.02;98821.38;4885989;29;20498;-82
2023/08/28 02:00:29;;;;;;;4.90;3.65;;;;;;;19.00;87.55;98817.66;4891237;29;20453;-83
2023/08/28 02:03:13;;;;;;;6.00;4.25;;;;;;;18.98;87.87;98821.38;4885824;29;20048;-83
2023/08/28 02:05:58;;;;;;;5.22;4.60;;;;;;;19.15;87.85;98830.25;4883285;29;20044;-82
2023/08/28 02:08:42;;;;;;;4.63;4.18;;;;;;;19.32;87.65;98824.78;4887490;29;20144;-83
2023/08/28 02:11:26;;;;;;;5.43;4.15;;;;;;;19.32;87.16;98816.81;4896925;29;20047;-82
2023/08/28 02:14:10;;;;;;;6.13;3.90;;;;;;;19.04;88.08;98819.56;4885434;29;20096;-82
2023/08/28 02:16:54;;;;;;;5.22;3.90;;;;;;;19.29;86.80;98812.78;4892349;29;20070;-82
2023/08/28 02:19:38;;;;;;;4.55;4.15;;;;;;;19.00;87.73;98807.84;4897533;29;20096;-82
2023/08/28 02:22:22;;;;;;;5.82;3.97;;;;;;;18.77;87.37;98824.91;4894741;29;20051;-82
2023/08/28 02:25:06;;;;;;;5.38;4.15;;;;;;;18.81;87.90;98823.34;4886598;29;20412;-83
2023/08/28 02:27:50;;;;;;;8.40;4.25;;;;;;;18.68;88.57;98820.06;4894110;29;20051;-82
2023/08/28 02:30:35;;;;;;;4.50;4.05;;;;;;;18.73;88.56;98818.50;4885354;29;20526;-82
2023/08/28 02:33:18;;;;;;;7.32;4.68;;;;;;;18.70;88.77;98817.13;4885179;29;20093;-82
2023/08/28 02:36:03;;;;;;;4.95;4.25;;;;;;;18.46;90.77;98816.66;4889511;29;20562;-82
2023/08/28 02:38:48;;;;;;;4.38;3.97;;;;;;;18.66;90.89;98808.06;4893384;29;20173;-82
2023/08/28 02:41:32;;;;;;;7.45;5.05;;;;;;;18.79;91.52;98801.53;4888254;29;20176;-82
2023/08/28 02:44:16;;;;;;;6.63;4.35;;;;;;;18.82;91.75;98801.00;4894791;29;20075;-82
2023/08/28 02:47:00;;;;;;;6.13;4.30;;;;;;;18.77;91.89;98799.13;4892304;29;20464;-82
2023/08/28 02:49:43;;;;;;;4.85;4.30;;;;;;;18.90;92.08;98789.09;4885875;29;20105;-82
2023/08/28 02:52:27;;;;;;;4.93;4.30;;;;;;;19.15;91.48;98785.03;4886067;29;20048;-82
2023/08/28 02:55:11;;;;;;;6.57;4.57;;;;;;;18.81;92.64;98783.47;4889697;29;20059;-82
2023/08/28 02:57:55;;;;;;;4.88;4.10;;;;;;;18.77;92.88;98787.69;4883536;29;20506;-82
2023/08/28 03:00:41;;;;;;;6.07;4.00;;;;;;;18.57;94.52;98781.16;4888690;29;20498;-83
2023/08/28 03:03:25;;;;;;;4.13;3.70;;;;;;;19.02;93.54;98788.94;4891620;29;20092;-82
2023/08/28 03:06:09;;;;;;;4.13;3.72;;;;;;;19.05;92.98;98788.41;4892178;29;20043;-82
2023/08/28 03:08:53;;;;;;;4.47;3.67;;;;;;;19.24;92.48;98776.28;4883192;29;20048;-83
2023/08/28 03:11:37;;;;;;;6.00;3.90;;;;;;;19.05;92.51;98783.09;4888281;29;20551;-83
2023/08/28 03:14:21;;;;;;;6.18;3.85;;;;;;;19.04;92.68;98786.81;4889804;29;20044;-82
2023/08/28 03:17:05;;;;;;;4.68;3.47;;;;;;;19.11;92.65;98782.09;4886884;29;20098;-83
2023/08/28 03:19:49;;;;;;;7.10;3.55;;;;;;;19.03;92.93;98785.22;4887984;29;20043;-82
2023/08/28 03:22:33;;;;;;;3.90;3.50;;;;;;;18.94;93.36;98788.34;4884218;29;20048;-83
2023/08/28 03:25:16;;;;;;;5.10;3.85;;;;;;;18.86;94.30;98780.81;4889425;29;20062;-83
2023/08/28 03:28:01;;;;;;;4.53;3.60;;;;;;;18.76;94.65;98784.22;4890977;29;20039;-81
2023/08/28 03:30:46;;;;;;;4.78;3.90;;;;;;;18.60;95.89;98783.31;4886415;29;20556;-82
2023/08/28 03:33:30;;;;;;;4.20;3.78;;;;;;;18.88;95.09;98783.25;4888719;29;20464;-83
2023/08/28 03:36:14;;;;;;;5.60;4.45;;;;;;;19.02;94.27;98781.78;4886068;29;20043;-83
2023/08/28 03:38:58;;;;;;;4.18;3.72;;;;;;;19.09;94.04;98778.91;4885075;29;20128;-83
2023/08/28 03:41:42;;;;;;;7.28;3.60;;;;;;;19.31;92.92;98764.63;4887411;29;20596;-83
2023/08/28 03:44:26;;;;;;;6.55;3.55;;;;;;;19.11;93.70;98771.47;4889657;29;20575;-81
2023/08/28 03:47:10;;;;;;;7.53;4.20;;;;;;;18.86;94.54;98772.06;4889254;29;20079;-84
2023/08/28 03:49:54;;;;;;;6.22;3.72;;;;;;;19.09;94.15;98770.91;4888129;29;20112;-83
2023/08/28 03:52:38;;;;;;;4.25;3.53;;;;;;;19.17;94.32;98765.09;4887550;29;20120;-82
2023/08/28 03:55:23;;;;;;;6.00;3.50;;;;;;;19.40;93.07;98763.88;4893474;29;20053;-83
2023/08/28 03:58:07;;;;;;;5.47;3.67;;;;;;;19.34;92.73;98772.88;4885358;29;20062;-84
2023/08/28 04:00:53;;;;;;;4.65;3.95;;;;;;;19.05;93.55;98781.25;4887211;29;20043;-83
2023/08/28 04:03:37;;;;;;;5.60;3.45;;;;;;;19.31;93.58;98770.75;4887415;29;20089;-84
2023/08/28 04:06:21;;;;;;;4.30;3.22;;;;;;;19.26;94.35;98784.03;4887352;29;20132;-83
2023/08/28 04:09:05;;;;;;;4.20;3.60;;;;;;;19.25;94.47;98783.22;4895425;29;20135;-83
2023/08/28 04:11:49;;;;;;;4.72;3.50;;;;;;;19.47;94.23;98784.94;4886835;29;20115;-83
2023/08/28 04:14:33;;;;;;;4.88;3.78;;;;;;;19.79;93.04;98788.53;4892677;29;20550;-83
2023/08/28 04:17:17;;;;;;;4.03;3.15;;;;;;;19.30;94.32;98785.13;4887884;29;20092;-83
2023/08/28 04:20:15;;;;;;;4.72;3.53;;;;;;;19.59;94.05;98792.72;4890182;29;20055;-82
2023/08/28 04:22:59;;;;;;;6.57;3.72;;;;;;;19.57;94.58;98788.69;4887246;29;20516;-83
2023/08/28 04:25:43;;;;;;;3.60;3.30;;;;;;;19.64;94.41;98789.25;4886653;29;20518;-84
2023/08/28 04:28:27;;;;;;;3.85;3.42;;;;;;;20.05;92.83;98785.94;4892178;29;20086;-83
2023/08/28 04:31:13;;;;;;;4.35;3.17;;;;;;;20.17;92.45;98794.50;4892959;29;20087;-83
2023/08/28 04:33:59;;;;;;;4.85;3.25;;;;;;;20.36;91.11;98797.44;4891487;29;20052;-83
2023/08/28 04:36:42;;;;;;;4.55;3.30;;;;;;;19.97;92.62;98787.25;4893234;29;20039;-84
2023/08/28 04:39:27;;;;;;;4.65;3.33;;;;;;;19.99;92.57;98795.78;4896640;29;20086;-84
2023/08/28 04:42:14;;;;;;;3.20;2.90;;;;;;;19.95;93.05;98800.03;4897127;29;20055;-84
2023/08/28 04:44:58;;;;;;;3.25;2.92;;;;;;;19.82;93.13;98802.09;4890242;29;20101;-83
2023/08/28 04:47:42;;;;;;;4.15;3.70;;;;;;;19.30;94.29;98802.97;4894701;29;20132;-84
2023/08/28 04:50:25;;;;;;;3.60;3.30;;;;;;;19.70;93.37;98810.31;4888632;29;20567;-83
2023/08/28 04:53:09;;;;;;;3.90;2.70;;;;;;;20.09;91.97;98800.34;4891666;29;20531;-81
2023/08/28 04:55:55;;;;;;;4.60;3.60;;;;;;;19.87;93.08;98808.53;4898408;29;20108;-82
2023/08/28 04:58:39;;;;;;;4.57;3.20;;;;;;;20.22;91.37;98797.19;4894489;29;20044;-83
2023/08/28 05:01:24;;;;;;;4.35;3.42;;;;;;;20.23;92.03;98805.94;4888925;29;20563;-82
2023/08/28 05:04:08;;;;;;;4.00;3.53;;;;;;;20.32;91.37;98801.72;4900176;29;20127;-82
2023/08/28 05:06:52;;;;;;;4.03;3.60;;;;;;;20.37;91.28;98806.25;4890378;29;20185;-83
2023/08/28 05:09:35;;;;;;;4.10;3.47;;;;;;;20.04;92.68;98808.31;4889737;29;20088;-83
2023/08/28 05:12:19;;;;;;;5.65;3.35;;;;;;;20.51;91.24;98811.88;4894769;29;20124;-82
2023/08/28 05:15:04;;;;;;;4.88;3.10;;;;;;;20.67;90.16;98810.00;4898742;29;20127;-82
2023/08/28 05:17:48;;;;;;;5.07;3.65;;;;;;;20.16;90.09;98810.75;4892449;29;20390;-83
2023/08/28 05:20:31;;;;;;;;;;;;;;;20.97;87.97;98816.41;4890842;29;20116;-84
2023/08/28 05:23:15;;;;;;;3.78;3.15;;;;;;;20.49;88.80;98814.00;4892432;29;19922;-85
2023/08/28 05:25:59;;;;;;;5.78;3.00;;;;;;;20.46;88.90;98814.53;4888025;29;20120;-85
2023/08/28 05:28:45;;;;;;;4.65;3.05;;;;;;;20.43;88.92;98815.03;4897927;29;20575;-84
2023/08/28 05:31:28;;;;;;;3.97;3.33;;;;;;;20.06;89.44;98819.53;4890978;29;20051;-85
2023/08/28 05:34:12;;;;;;;6.05;3.20;;;;;;;20.61;88.36;98822.53;4891660;29;20043;-83
2023/08/28 05:36:56;;;;;;;4.50;2.92;;;;;;;20.62;87.95;98839.34;4892156;29;20063;-84
2023/08/28 05:39:40;;;;;;;3.40;2.58;;;;;;;20.47;88.33;98842.78;4895463;29;20112;-84
2023/08/28 05:42:25;;;;;;;4.30;2.30;;;;;;;20.26;88.03;98843.53;4896846;29;20458;-82
2023/08/28 05:45:09;;;;;;;2.53;2.33;;;;;;;20.33;88.47;98848.63;4885434;29;20051;-84
2023/08/28 05:47:53;;;;;;;3.70;2.38;;;;;;;20.43;87.79;98839.84;4891124;29;20052;-84
2023/08/28 05:50:39;;;;;;;3.00;2.13;;;;;;;20.63;87.09;98844.38;4896295;29;20407;-84
2023/08/28 05:53:23;;;;;;;2.88;2.47;;;;;;;20.19;88.08;98843.00;4887331;29;20502;-84
2023/08/28 05:56:07;;;;;;;3.80;2.25;;;;;;;20.32;87.94;98846.22;4885621;29;20114;-84
2023/08/28 05:58:51;;;;;;;2.38;2.17;;;;;;;20.35;88.13;98849.16;4882649;29;20043;-84
2023/08/28 06:01:35;;;;;;;4.25;2.30;;;;;;;20.13;87.95;98854.69;4894453;29;20087;-84
2023/08/28 06:04:19;;;;;;;6.47;2.72;;;;;;;20.34;88.15;98858.22;4889612;29;20064;-84
2023/08/28 06:07:04;;;;;;;3.08;2.58;;;;;;;20.50;87.75;98858.25;4888213;29;20043;-82
2023/08/28 06:09:48;;;;;;;2.53;2.20;;;;;;;20.45;87.05;98861.72;4882789;29;20079;-85
2023/08/28 06:12:32;;;;;;;4.50;2.38;;;;;;;20.45;87.32;98859.03;4888517;29;20051;-85
2023/08/28 06:15:19;;;;;;;3.08;2.60;;;;;;;20.46;87.03;98851.84;4898138;29;20104;-86
2023/08/28 06:18:04;;;;;;;3.72;2.42;;;;;;;20.47;86.95;98856.91;4900864;29;20060;-85
2023/08/28 06:20:48;;;;;;;3.72;2.47;;;;;;;20.56;86.69;98870.53;4893877;29;20044;-85
2023/08/28 06:23:33;;;;;;;4.65;2.88;;;;;;;20.47;86.96;98869.44;4900672;29;20566;-84
2023/08/28 06:26:17;;;;;;;4.70;3.10;;;;;;;20.21;87.55;98864.03;4898268;29;20144;-86
2023/08/28 06:29:02;;;;;;;6.30;3.22;;;;;;;20.55;86.65;98866.25;4887608;29;20059;-85
2023/08/28 06:31:46;;;;;;;7.43;2.70;;;;;;;20.32;86.99;98863.03;4874939;29;20132;-84
2023/08/28 06:34:31;;;;;;;6.63;2.83;;;;;;;20.06;87.30;98865.63;4885163;29;20051;-85
2023/08/28 06:37:14;;;;;;;9.43;3.25;;;;;;;20.07;86.63;98856.56;4887786;29;20189;-85
2023/08/28 06:39:58;;;;;;;7.82;3.63;;;;;;;20.10;86.50;98858.72;4883272;29;20612;-83
2023/08/28 06:42:43;;;;;;;5.65;2.60;;;;;;;20.23;85.78;98856.59;4899156;29;20051;-86
2023/08/28 06:45:27;;;;;;;7.45;2.67;;;;;;;20.19;85.47;98851.00;4901283;29;20566;-85
2023/08/28 06:48:11;;;;;;;6.32;2.67;;;;;;;20.27;84.47;98865.69;4893622;29;20097;-85
2023/08/28 06:50:56;;;;;;;7.60;2.78;;;;;;;20.34;81.47;98876.88;4882618;29;20056;-84
2023/08/28 06:53:41;;;;;;;9.63;2.95;;;;;;;20.52;81.53;98856.13;4898095;29;20067;-85
2023/08/28 06:56:25;;;;;;;7.88;3.22;;;;;;;20.86;80.38;98855.66;4887606;29;20199;-85
2023/08/28 06:59:09;;;;;;;7.90;3.15;;;;;;;20.77;79.27;98852.69;4890410;29;20055;-86
2023/08/28 07:01:53;;;;;;;6.18;3.30;;;;;;;20.86;78.92;98863.66;4886886;29;20048;-86
2023/08/28 07:04:36;;;;;;;4.63;2.67;;;;;;;20.71;77.89;98858.28;4898603;29;20044;-85
2023/08/28 07:07:20;;;;;;;11.02;3.13;;;;;;;20.73;77.93;98854.25;4895523;29;20056;-86
2023/08/28 07:10:06;;;;;;;10.52;3.00;;;;;;;21.12;76.93;98858.28;4883825;29;20059;-85
2023/08/28 07:12:50;;;;;;;8.48;3.03;;;;;;;21.11;76.61;98856.69;4888980;29;20055;-85
2023/08/28 07:15:34;;;;;;;7.03;2.60;;;;;;;20.94;76.21;98865.78;4888420;29;20128;-83
2023/08/28 07:18:18;;;;;;;10.02;3.03;;;;;;;20.89;75.38;98870.31;4885973;29;20088;-85
2023/08/28 07:21:03;;;;;;;9.88;2.70;;;;;;;21.40;74.41;98874.78;4884023;29;20056;-84
2023/08/28 07:23:47;;;;;;;10.57;2.92;;;;;;;20.91;74.43;98876.16;4895924;29;20415;-85
2023/08/28 07:26:31;;;;;;;;;;;;;;;20.67;74.50;98882.81;4880353;29;20056;-82
2023/08/28 07:29:14;;;;;;;9.82;2.72;;;;;;;20.54;74.34;98881.47;4884592;29;19972;-82
2023/08/28 07:31:58;;;;;;;7.70;2.88;;;;;;;20.38;74.83;98877.16;4884553;29;20075;-82
2023/08/28 07:34:42;;;;;;;9.85;2.90;;;;;;;21.37;73.40;98878.00;4887819;29;20086;-84
2023/08/28 07:37:30;;;;;;;9.18;2.85;;;;;;;21.61;72.15;98869.38;4883984;29;20129;-85
2023/08/28 07:40:15;;;;;;;8.40;3.17;;;;;;;21.36;72.22;98884.41;4888922;29;20501;-83
2023/08/28 07:42:59;;;;;;;7.35;3.08;;;;;;;21.55;71.17;98877.44;4885373;29;20125;-86
2023/08/28 07:45:43;;;;;;;8.38;2.53;;;;;;;21.77;70.39;98878.97;4883477;29;20502;-86
2023/08/28 07:48:27;;;;;;;7.28;3.15;;;;;;;22.14;69.45;98892.19;4883314;29;20074;-84
2023/08/28 07:51:11;;;;;;;11.55;2.95;;;;;;;21.62;69.33;98884.38;4884059;29;20097;-87
2023/08/28 07:53:55;;;;;;;7.63;2.75;;;;;;;22.01;68.66;98894.41;4887648;29;20551;-84
2023/08/28 07:56:39;;;;;;;7.47;2.50;;;;;;;22.37;67.97;98886.19;4885794;29;20043;-86
2023/08/28 07:59:23;;;;;;;9.38;2.78;;;;;;;22.25;67.72;98886.53;4886677;29;20043;-86
2023/08/28 08:02:07;;;;;;;7.85;2.50;;;;;;;22.18;65.81;98890.56;4884291;29;20620;-87
2023/08/28 08:04:52;;;;;;;8.55;2.50;;;;;;;22.47;65.23;98895.28;4884337;29;20040;-85
2023/08/28 08:07:39;;;;;;;7.55;2.70;;;;;;;22.06;65.34;98886.38;4889517;29;20405;-82
2023/08/28 08:10:24;;;;;;;8.75;2.53;;;;;;;22.04;64.76;98901.88;4884223;29;20411;-80
2023/08/28 08:13:08;;;;;;;4.85;2.28;;;;;;;22.19;64.53;98905.53;4883604;29;20152;-79
2023/08/28 08:15:52;;;;;;;7.68;3.47;;;;;;;22.08;64.55;98907.47;4882375;29;20044;-82
2023/08/28 08:18:36;;;;;;;8.77;3.33;;;;;;;21.41;66.23;98903.09;4885324;29;20116;-85
2023/08/28 08:21:20;;;;;;;7.78;2.72;;;;;;;21.73;66.01;98907.31;4887292;29;20123;-82
2023/08/28 08:24:04;;;;;;;13.18;3.15;;;;;;;21.90;67.10;98900.84;4883750;29;20081;-83
2023/08/28 08:26:49;;;;;;;6.90;2.70;;;;;;;21.11;68.32;98894.84;4884538;29;20051;-83
2023/08/28 08:29:33;;;;;;;8.90;3.20;;;;;;;20.71;67.91;98903.63;4882118;29;20403;-80
2023/08/28 08:32:17;;;;;;;9.63;3.13;;;;;;;21.59;67.41;98900.91;4879965;29;20044;-80
2023/08/28 08:35:05;;;;;;;10.50;2.88;;;;;;;22.17;66.44;98905.00;4882631;29;20174;-81
2023/08/28 08:37:52;;;;;;;6.13;2.75;;;;;;;21.64;65.82;98900.91;4883109;29;20071;-80
2023/08/28 08:40:39;;;;;;;7.38;2.63;;;;;;;21.14;66.50;98914.88;4885612;29;20054;-77
2023/08/28 08:43:27;;;;;;;14.30;3.13;;;;;;;21.12;68.18;98915.13;4884473;29;20047;-78
2023/08/28 08:46:12;;;;;;;9.45;2.88;;;;;;;21.82;65.86;98908.38;4880720;29;20169;-77
2023/08/28 08:49:00;;;;;;;9.02;3.40;;;;;;;21.95;65.38;98906.19;4882211;29;20052;-82
2023/08/28 08:51:45;;;;;;;4.45;2.40;;;;;;;22.59;63.80;98914.44;4885318;29;20561;-83
2023/08/28 08:54:35;;;;;;;5.45;2.40;;;;;;;21.74;61.58;98911.59;4878286;29;20109;-84
2023/08/28 08:57:29;;;;;;;5.78;2.95;;;;;;;22.74;60.88;98918.09;4882286;29;20099;-83
2023/08/28 09:00:15;;;;;;;6.40;2.67;;;;;;;21.89;60.66;98907.28;4884796;29;20567;-84
2023/08/28 09:03:01;;;;;;;5.63;2.45;;;;;;;22.05;60.56;98922.19;4884715;29;20051;-85
2023/08/28 09:05:47;;;;;;;4.80;2.30;;;;;;;21.44;61.14;98921.25;4885738;29;20503;-78
2023/08/28 09:08:37;;;;;;;3.58;2.05;;;;;;;21.94;60.42;98920.63;4880653;29;20044;-81
2023/08/28 09:11:20;;;;;;;2.85;1.67;;;;;;;21.97;60.49;98920.06;4884155;29;20403;-79
2023/08/28 09:14:05;;;;;;;5.57;2.33;;;;;;;22.43;60.01;98913.69;4886522;29;20048;-79
2023/08/28 09:16:50;;;;;;;7.88;2.72;;;;;;;22.45;60.24;98924.13;4883158;29;20155;-79
2023/08/28 09:19:34;;;;;;;6.20;2.13;;;;;;;22.23;60.73;98933.34;4886952;29;20048;-79
2023/08/28 09:22:25;;;;;;;4.35;2.10;;;;;;;22.71;59.93;98937.38;4886314;29;20099;-81
2023/08/28 09:25:09;;;;;;;8.85;2.47;;;;;;;22.52;60.95;98925.47;4889307;29;20173;-82
2023/08/28 09:27:56;;;;;;;4.45;2.00;;;;;;;22.18;61.69;98919.97;4885016;29;20096;-82
2023/08/28 09:30:41;;;;;;;5.10;2.00;;;;;;;21.81;61.51;98917.47;4882227;29;20048;-81
2023/08/28 09:33:41;;;;;;;4.22;2.38;;;;;;;22.34;60.48;98908.13;4882596;29;20170;-78
2023/08/28 09:36:25;;;;;;;6.25;2.38;;;;;;;22.45;60.71;98918.78;4880112;29;20104;-79
2023/08/28 09:39:11;;;;;;;6.80;2.60;;;;;;;22.35;61.31;98915.09;4884454;29;20144;-79
2023/08/28 09:41:55;;;;;;;3.97;2.22;;;;;;;23.06;59.17;98912.22;4882494;29;20133;-79
2023/08/28 09:44:48;;;;;;;6.72;2.30;;;;;;;22.68;58.27;98907.44;4881333;29;20541;-79
2023/08/28 09:47:33;;;;;;;4.70;2.37;;;;;;;22.71;59.30;98932.03;4885159;29;20092;-78
2023/08/28 09:50:16;;;;;;;;;;;;;;;22.11;59.98;98929.09;4887532;29;20039;-80
2023/08/28 09:53:13;;;;;;;5.10;2.65;;;;;;;22.56;59.61;98923.03;4889809;29;19923;-81
2023/08/28 09:55:58;;;;;;;4.43;2.10;;;;;;;21.93;60.17;98933.19;4882502;29;20052;-80
2023/08/28 09:58:47;;;;;;;3.88;1.67;;;;;;;22.51;58.94;98934.56;4883860;29;20047;-82
2023/08/28 10:01:35;;;;;;;2.92;1.88;;;;;;;22.46;56.61;98915.81;4884047;29;20051;-83
2023/08/28 10:04:20;;;;;;;2.20;1.85;;;;;;;21.97;57.35;98933.41;4888086;29;20546;-84
2023/08/28 10:07:04;;;;;;;5.35;2.10;;;;;;;22.67;56.53;98926.44;4887197;29;20677;-84
2023/08/28 10:09:53;;;;;;;7.40;3.03;;;;;;;22.43;57.01;98904.91;4882495;29;20099;-85
2023/08/28 10:12:40;;;;;;;7.00;1.95;;;;;;;22.06;57.96;98922.97;4885090;29;20047;-84
2023/08/28 10:15:24;;;;;;;6.40;2.30;;;;;;;23.22;57.23;98914.78;4887782;29;20249;-84
2023/08/28 10:18:17;;;;;;;3.67;2.25;;;;;;;22.97;57.11;98908.56;4888696;29;20055;-83
2023/08/28 10:21:02;;;;;;;5.72;2.42;;;;;;;22.38;57.36;98919.88;4888095;29;20093;-83
2023/08/28 10:23:48;;;;;;;7.05;2.30;;;;;;;23.62;56.16;98922.72;4886190;29;20448;-82
2023/08/28 10:26:33;;;;;;;4.82;2.30;;;;;;;23.82;56.25;98932.41;4882833;29;20109;-85
2023/08/28 10:29:18;;;;;;;5.85;2.17;;;;;;;24.01;56.98;98923.63;4885719;29;20055;-87
2023/08/28 10:32:10;;;;;;;6.88;2.20;;;;;;;24.61;56.62;98920.47;4884151;29;20055;-83
2023/08/28 10:34:56;;;;;;;9.77;2.63;;;;;;;24.22;55.81;98929.56;4883256;29;20056;-84
2023/08/28 10:37:42;;;;;;;5.15;2.67;;;;;;;24.27;55.41;98932.19;4875791;29;20105;-82
2023/08/28 10:40:27;;;;;;;3.90;2.15;;;;;;;24.52;54.26;98927.56;4881751;29;20040;-83
2023/08/28 10:43:12;;;;;;;3.83;2.00;;;;;;;24.59;53.73;98938.75;4881204;29;20051;-85
2023/08/28 10:46:00;;;;;;;6.28;2.53;;;;;;;24.24;53.68;98927.41;4883778;29;20051;-86
2023/08/28 10:48:45;;;;;;;7.55;2.70;;;;;;;23.82;54.43;98943.94;4883529;29;20543;-83
2023/08/28 10:51:37;;;;;;;6.00;2.45;;;;;;;24.63;53.72;98926.34;4879589;29;20052;-85
2023/08/28 10:54:21;;;;;;;4.15;2.58;;;;;;;25.24;53.77;98915.72;4884011;29;20128;-84
2023/08/28 10:57:10;;;;;;;5.38;2.53;;;;;;;25.13;54.05;98924.25;4887596;29;20126;-85
2023/08/28 10:59:55;;;;;;;5.32;2.63;;;;;;;24.55;54.10;98921.59;4886999;29;20096;-84
2023/08/28 11:03:03;;;;;;;4.57;2.20;;;;;;;25.03;53.43;98919.84;4888645;29;20052;-85
2023/08/28 11:05:47;;;;;;;6.15;2.67;;;;;;;25.32;53.49;98929.56;4885999;29;20044;-85
2023/08/28 11:08:35;;;;;;;5.13;3.10;;;;;;;26.42;52.29;98916.44;4884870;29;20038;-84
2023/08/28 11:11:19;;;;;;;6.75;2.95;;;;;;;24.98;52.73;98917.25;4891168;29;20182;-84
2023/08/28 11:14:04;;;;;;;9.00;2.60;;;;;;;24.60;53.53;98918.06;4887846;29;20132;-85
2023/08/28 11:16:49;;;;;;;4.00;2.00;;;;;;;25.28;52.26;98909.75;4886396;29;20063;-85
2023/08/28 11:19:59;;;;;;;4.72;2.10;;;;;;;25.65;51.77;98918.78;4886082;29;20117;-84
2023/08/28 11:22:46;;;;;;;6.43;2.40;;;;;;;25.43;51.99;98916.75;4885561;29;20407;-84
2023/08/28 11:25:39;;;;;;;6.40;2.95;;;;;;;25.66;52.26;98920.38;4889695;29;20056;-86
2023/08/28 11:28:30;;;;;;;3.33;2.55;;;;;;;25.35;52.57;98915.53;4884907;29;20415;-85
2023/08/28 11:31:15;;;;;;;3.40;2.25;;;;;;;25.18;51.98;98927.66;4887298;29;20051;-85
2023/08/28 11:33:59;;;;;;;3.47;2.22;;;;;;;26.37;52.23;98917.38;4885898;29;20044;-85
2023/08/28 11:36:43;;;;;;;5.35;2.80;;;;;;;25.65;52.59;98919.59;4886398;29;20055;-85
2023/08/28 11:39:28;;;;;;;4.07;2.20;;;;;;;25.36;52.61;98922.53;4889531;29;20083;-84
2023/08/28 11:42:12;;;;;;;5.60;2.20;;;;;;;26.13;51.78;98922.94;4885445;29;20083;-84
2023/08/28 11:44:56;;;;;;;5.25;2.30;;;;;;;25.59;52.33;98925.38;4886733;29;20044;-85
2023/08/28 11:47:40;;;;;;;7.43;3.10;;;;;;;24.72;53.92;98921.09;4884683;29;20100;-84
2023/08/28 11:50:26;;;;;;;3.63;2.30;;;;;;;24.75;54.06;98925.06;4890148;29;20051;-84
2023/08/28 11:53:10;;;;;;;7.70;2.50;;;;;;;24.83;53.67;98919.09;4887741;29;20097;-84
2023/08/28 11:55:54;;;;;;;8.35;2.55;;;;;;;25.91;53.17;98918.28;4886765;29;20069;-85
2023/08/28 11:58:40;;;;;;;5.40;2.65;;;;;;;25.85;53.03;98919.50;4886477;29;20998;-85
2023/08/28 12:01:27;;;;;;;7.43;2.50;;;;;;;26.23;51.56;98935.41;4884986;29;20047;-84
2023/08/28 12:04:11;;;;;;;11.82;3.45;;;;;;;25.51;53.50;98941.06;4886557;29;20072;-84
2023/08/28 12:06:55;;;;;;;3.67;2.15;;;;;;;25.88;52.17;98932.31;4886621;29;20457;-86
2023/08/28 12:09:40;;;;;;;4.90;2.40;;;;;;;26.69;51.85;98932.78;4888171;29;20398;-85
2023/08/28 12:12:26;;;;;;;4.50;2.40;;;;;;;27.04;51.78;98928.50;4887506;29;20084;-85
2023/08/28 12:15:11;;;;;;;5.97;2.35;;;;;;;27.20;50.82;98931.59;4888964;29;20043;-85
2023/08/28 12:18:07;;;;;;;9.23;2.67;;;;;;;27.47;49.84;98927.13;4887611;29;20193;-85
2023/08/28 12:21:02;;;;;;;5.07;2.75;;;;;;;27.04;50.32;98930.38;4886446;29;20132;-84
2023/08/28 12:23:56;;;;;;;3.28;2.47;;;;;;;26.82;50.89;98931.97;4888347;29;20510;-85
2023/08/28 12:26:43;;;;;;;4.20;2.45;;;;;;;26.65;50.99;98932.63;4886247;29;20056;-85
2023/08/28 12:29:27;;;;;;;4.57;2.40;;;;;;;26.88;51.37;98930.75;4889825;29;20206;-86
2023/08/28 12:32:19;;;;;;;2.50;2.30;;;;;;;25.60;51.31;98933.13;4885543;29;20060;-85
2023/08/28 12:35:11;;;;;;;3.78;2.35;;;;;;;27.44;49.15;98930.44;4885409;29;20091;-85
2023/08/28 12:37:55;;;;;;;4.70;2.40;;;;;;;26.72;49.02;98916.84;4885436;29;20469;-86
2023/08/28 12:40:42;;;;;;;3.92;2.65;;;;;;;27.94;48.33;98925.91;4885686;29;20041;-86
2023/08/28 12:43:26;;;;;;;3.80;2.58;;;;;;;27.20;49.08;98918.13;4882344;29;20055;-84
2023/08/28 12:46:10;;;;;;;5.60;2.55;;;;;;;25.95;50.39;98922.00;4889993;29;20044;-85
2023/08/28 12:48:54;;;;;;;4.85;2.95;;;;;;;26.51;49.64;98922.69;4885485;29;20068;-85
2023/08/28 12:51:39;;;;;;;7.35;3.00;;;;;;;26.61;49.90;98918.97;4884551;29;20112;-85
2023/08/28 12:54:24;;;;;;;3.60;2.60;;;;;;;26.98;50.23;98910.84;4889346;29;20089;-86
2023/08/28 12:57:11;;;;;;;3.55;2.60;;;;;;;25.78;50.60;98917.19;4890939;29;20709;-86
2023/08/28 12:59:55;;;;;;;4.47;2.85;;;;;;;25.19;51.27;98929.25;4887730;29;20048;-84